Time;durP1;ratioP1;P1;durP2;ratioP2;P2;SDS_P1;SDS_P2;PMS_P1;PMS_P2;Temp;Humidity;BMP_temperature;BMP_pressure;BME280_temperature;BME280_humidity;BME280_pressure;Samples;Min_cycle;Max_cycle;Signal;HPM_P1;HPM_P2
2023/12/27 00:00:31;;;;;;;;;;;;;;;0.43;100.00;101709.06;4986942;28;19974;-76
2023/12/27 00:02:57;;;;;;;;;;;;;;;0.42;100.00;101702.09;4984998;28;19922;-75
2023/12/27 00:05:22;;;;;;;;;;;;;;;0.41;100.00;101710.97;4983860;28;20442;-77
2023/12/27 00:07:47;;;;;;;;;;;;;;;0.58;100.00;101714.22;4982498;28;19928;-77
2023/12/27 00:10:13;;;;;;;;;;;;;;;0.62;100.00;101701.63;4983354;28;20005;-75
2023/12/27 00:12:38;;;;;;;;;;;;;;;0.50;100.00;101693.59;4973965;28;20046;-74
2023/12/27 00:15:03;;;;;;;;;;;;;;;0.40;100.00;101700.50;4978793;28;19922;-76
2023/12/27 00:17:28;;;;;;;;;;;;;;;0.39;100.00;101693.53;4976353;28;19942;-76
2023/12/27 00:19:54;;;;;;;;;;;;;;;0.34;100.00;101698.28;4989437;28;19944;-76
2023/12/27 00:22:19;;;;;;;;;;;;;;;0.32;100.00;101692.25;4978150;28;20013;-77
2023/12/27 00:24:45;;;;;;;;;;;;;;;0.31;100.00;101696.72;4975376;28;19965;-75
2023/12/27 00:27:10;;;;;;;;;;;;;;;0.30;100.00;101693.19;4973554;28;19922;-77
2023/12/27 00:29:37;;;;;;;;;;;;;;;0.26;100.00;101702.34;4981586;28;19922;-76
2023/12/27 00:32:02;;;;;;;;;;;;;;;0.24;100.00;101700.75;4998362;28;19972;-76
2023/12/27 00:34:27;;;;;;;;;;;;;;;0.16;100.00;101689.84;4994866;28;19953;-77
2023/12/27 00:36:53;;;;;;;;;;;;;;;0.11;100.00;101687.50;4990451;28;20393;-75
2023/12/27 00:39:23;;;;;;;;;;;;;;;0.19;100.00;101689.63;4987886;28;20374;-77
2023/12/27 00:41:48;;;;;;;;;;;;;;;0.07;100.00;101686.88;4981741;28;19922;-75
2023/12/27 00:44:14;;;;;;;;;;;;;;;0.02;100.00;101693.47;4988670;28;19925;-76
2023/12/27 00:46:39;;;;;;;;;;;;;;;0.00;100.00;101696.22;4991997;28;19922;-76
2023/12/27 00:49:04;;;;;;;;;;;;;;;-0.06;100.00;101697.47;4978132;28;19922;-76
2023/12/27 00:51:33;;;;;;;;;;;;;;;-0.16;100.00;101699.91;4992921;28;19965;-75
2023/12/27 00:53:58;;;;;;;;;;;;;;;-0.24;100.00;101689.03;4983137;28;19926;-75
2023/12/27 00:56:24;;;;;;;;;;;;;;;-0.29;100.00;101685.84;4977587;28;19927;-74
2023/12/27 00:58:49;;;;;;;;;;;;;;;-0.23;100.00;101674.84;4977672;28;19921;-77
2023/12/27 01:01:14;;;;;;;;;;;;;;;-0.30;100.00;101681.50;4993329;28;19930;-77
2023/12/27 01:03:40;;;;;;;;;;;;;;;-0.40;100.00;101678.63;4987245;28;19918;-76
2023/12/27 01:06:05;;;;;;;;;;;;;;;-0.45;100.00;101686.06;4982855;28;20021;-76
2023/12/27 01:08:31;;;;;;;;;;;;;;;-0.49;100.00;101676.63;4986434;28;19922;-76
2023/12/27 01:10:56;;;;;;;;;;;;;;;-0.52;100.00;101682.94;4992229;28;19918;-76
2023/12/27 01:13:21;;;;;;;;;;;;;;;-0.38;100.00;101683.84;4993340;28;19937;-75
2023/12/27 01:15:47;;;;;;;;;;;;;;;-0.48;100.00;101681.81;4988244;28;19976;-75
2023/12/27 01:18:12;;;;;;;;;;;;;;;-0.55;100.00;101690.25;4977642;28;19945;-75
2023/12/27 01:20:37;;;;;;;;;;;;;;;-0.56;100.00;101686.78;4993676;28;19928;-76
2023/12/27 01:23:03;;;;;;;;;;;;;;;-0.58;100.00;101690.44;4994630;28;20345;-75
2023/12/27 01:25:28;;;;;;;;;;;;;;;-0.64;100.00;101684.66;4981950;28;19926;-76
2023/12/27 01:27:53;;;;;;;;;;;;;;;-0.64;100.00;101686.44;4977794;28;19930;-76
2023/12/27 01:30:21;;;;;;;;;;;;;;;-0.62;100.00;101684.53;4984595;28;19929;-76
2023/12/27 01:32:48;;;;;;;;;;;;;;;-0.60;100.00;101677.34;4985567;28;20378;-76
2023/12/27 01:35:14;;;;;;;;;;;;;;;-0.66;100.00;101685.69;4982663;28;19922;-76
2023/12/27 01:37:39;;;;;;;;;;;;;;;-0.71;100.00;101683.34;4976390;28;19961;-76
2023/12/27 01:40:06;;;;;;;;;;;;;;;-0.73;100.00;101687.06;4975331;28;20596;-76
2023/12/27 01:42:33;;;;;;;;;;;;;;;-0.75;100.00;101683.66;4982218;28;19945;-76
2023/12/27 01:44:58;;;;;;;;;;;;;;;-0.74;100.00;101682.72;4979636;28;20389;-76
2023/12/27 01:47:23;;;;;;;;;;;;;;;-0.72;100.00;101683.47;4978389;28;19922;-76
2023/12/27 01:49:48;;;;;;;;;;;;;;;-0.75;100.00;101689.78;4976130;28;20106;-75
2023/12/27 01:52:14;;;;;;;;;;;;;;;-0.72;100.00;101686.13;4989020;28;19929;-76
2023/12/27 01:54:39;;;;;;;;;;;;;;;-0.65;100.00;101682.09;4995490;28;19922;-76
2023/12/27 01:57:04;;;;;;;;;;;;;;;-0.61;100.00;101686.22;4993941;28;19930;-76
2023/12/27 01:59:29;;;;;;;;;;;;;;;-0.57;100.00;101692.16;4986168;28;19926;-76
2023/12/27 02:01:55;;;;;;;;;;;;;;;-0.55;100.00;101691.13;4997480;28;19932;-76
2023/12/27 02:04:20;;;;;;;;;;;;;;;-0.53;100.00;101689.19;5011414;28;20030;-76
2023/12/27 02:06:48;;;;;;;;;;;;;;;-0.40;100.00;101678.63;5003044;28;19953;-76
2023/12/27 02:09:13;;;;;;;;;;;;;;;-0.36;100.00;101674.00;5002348;28;20298;-76
2023/12/27 02:11:39;;;;;;;;;;;;;;;-0.32;100.00;101680.75;4981505;28;19925;-76
2023/12/27 02:14:07;;;;;;;;;;;;;;;-0.29;100.00;101679.72;4986493;28;19929;-76
2023/12/27 02:16:33;;;;;;;;;;;;;;;-0.10;100.00;101693.38;4985306;28;19982;-76
2023/12/27 02:18:59;;;;;;;;;;;;;;;0.06;100.00;101689.66;4994444;28;20009;-76
2023/12/27 02:21:25;;;;;;;;;;;;;;;0.01;100.00;101679.38;4994260;28;20341;-76
2023/12/27 02:23:50;;;;;;;;;;;;;;;-0.02;100.00;101684.91;4982467;28;19922;-77
2023/12/27 02:26:15;;;;;;;;;;;;;;;-0.04;100.00;101689.44;4974474;28;19930;-77
2023/12/27 02:28:40;;;;;;;;;;;;;;;-0.05;100.00;101677.16;4980168;28;19922;-76
2023/12/27 02:31:05;;;;;;;;;;;;;;;-0.06;100.00;101675.47;4993759;28;19929;-76
2023/12/27 02:33:31;;;;;;;;;;;;;;;-0.07;100.00;101664.00;5016924;28;19922;-76
2023/12/27 02:35:56;;;;;;;;;;;;;;;-0.05;100.00;101664.75;5003372;28;19938;-76
2023/12/27 02:38:21;;;;;;;;;;;;;;;0.02;100.00;101648.47;4984172;28;19914;-77
2023/12/27 02:40:46;;;;;;;;;;;;;;;0.04;100.00;101652.69;4977251;28;19922;-77
2023/12/27 02:43:12;;;;;;;;;;;;;;;0.03;100.00;101652.81;4982956;28;20016;-77
2023/12/27 02:45:37;;;;;;;;;;;;;;;0.00;100.00;101645.94;4994701;28;19940;-77
2023/12/27 02:48:03;;;;;;;;;;;;;;;-0.02;100.00;101651.31;4988974;28;19926;-77
2023/12/27 02:50:28;;;;;;;;;;;;;;;-0.04;100.00;101639.16;4985929;28;19953;-76
2023/12/27 02:52:53;;;;;;;;;;;;;;;-0.07;100.00;101634.91;4994004;28;19922;-77
2023/12/27 02:55:18;;;;;;;;;;;;;;;-0.10;100.00;101626.34;4978556;28;19930;-77
2023/12/27 02:57:43;;;;;;;;;;;;;;;-0.13;100.00;101632.72;4992581;28;19922;-76
2023/12/27 03:00:09;;;;;;;;;;;;;;;-0.12;100.00;101622.94;4986425;28;19921;-77
2023/12/27 03:02:34;;;;;;;;;;;;;;;-0.09;100.00;101628.03;5008555;28;19910;-76
2023/12/27 03:04:59;;;;;;;;;;;;;;;-0.09;100.00;101625.38;4991096;28;20223;-76
2023/12/27 03:07:25;;;;;;;;;;;;;;;-0.05;100.00;101627.69;4977439;28;19922;-77
2023/12/27 03:09:50;;;;;;;;;;;;;;;0.02;100.00;101630.75;4979364;28;20017;-77
2023/12/27 03:12:15;;;;;;;;;;;;;;;-0.05;100.00;101632.16;4994623;28;19933;-77
2023/12/27 03:14:40;;;;;;;;;;;;;;;-0.12;100.00;101622.94;4995161;28;19968;-76
2023/12/27 03:17:11;;;;;;;;;;;;;;;-0.18;100.00;101627.72;4990637;28;19926;-80
2023/12/27 03:19:37;;;;;;;;;;;;;;;-0.22;100.00;101618.31;4977438;28;19926;-79
2023/12/27 03:22:02;;;;;;;;;;;;;;;-0.19;100.00;101606.66;4992522;28;19953;-79
2023/12/27 03:24:27;;;;;;;;;;;;;;;-0.18;100.00;101611.00;4991131;28;19921;-79
2023/12/27 03:26:53;;;;;;;;;;;;;;;-0.23;100.00;101606.03;4987292;28;19922;-78
2023/12/27 03:29:18;;;;;;;;;;;;;;;-0.25;100.00;101607.94;4983064;28;19922;-80
2023/12/27 03:31:43;;;;;;;;;;;;;;;-0.25;100.00;101604.44;4999163;28;19922;-79
2023/12/27 03:34:08;;;;;;;;;;;;;;;-0.25;100.00;101607.09;4996834;28;19985;-79
2023/12/27 03:36:33;;;;;;;;;;;;;;;-0.23;100.00;101603.41;4972788;28;19953;-79
2023/12/27 03:39:02;;;;;;;;;;;;;;;-0.14;100.00;101608.97;4996471;28;19928;-79
2023/12/27 03:41:30;;;;;;;;;;;;;;;-0.08;100.00;101613.84;4994934;28;20397;-79
2023/12/27 03:43:58;;;;;;;;;;;;;;;0.00;100.00;101616.81;4995759;28;19973;-80
2023/12/27 03:46:24;;;;;;;;;;;;;;;0.04;100.00;101605.03;4995167;28;20382;-79
2023/12/27 03:48:49;;;;;;;;;;;;;;;0.09;100.00;101599.44;4985545;28;19937;-80
2023/12/27 03:51:14;;;;;;;;;;;;;;;0.14;100.00;101586.69;4976253;28;19941;-79
2023/12/27 03:53:42;;;;;;;;;;;;;;;0.20;100.00;101583.59;4975947;28;19922;-80
2023/12/27 03:56:08;;;;;;;;;;;;;;;0.27;100.00;101597.25;4974123;28;20367;-79
2023/12/27 03:58:46;;;;;;;;;;;;;;;0.32;100.00;101604.84;4974011;28;20009;-79
2023/12/27 04:01:11;;;;;;;;;;;;;;;0.35;100.00;101607.28;4980420;28;19922;-79
2023/12/27 04:03:36;;;;;;;;;;;;;;;0.35;100.00;101600.19;4992406;28;19932;-80
2023/12/27 04:06:01;;;;;;;;;;;;;;;0.40;100.00;101600.69;4992359;28;19944;-79
2023/12/27 04:08:27;;;;;;;;;;;;;;;0.50;100.00;101603.50;4993775;28;19917;-79
2023/12/27 04:10:52;;;;;;;;;;;;;;;0.53;100.00;101603.28;4992030;28;19918;-79
2023/12/27 04:13:18;;;;;;;;;;;;;;;0.53;100.00;101603.28;4980637;28;19926;-79
2023/12/27 04:18:11;;;;;;;;;;;;;;;0.58;100.00;101618.84;5060050;23;19929;-80
2023/12/27 04:20:36;;;;;;;;;;;;;;;0.59;100.00;101618.75;4992070;28;20429;-79
2023/12/27 04:23:01;;;;;;;;;;;;;;;0.65;100.00;101598.91;4993950;28;19964;-80
2023/12/27 04:25:27;;;;;;;;;;;;;;;0.64;100.00;101602.50;5010802;28;19925;-80
2023/12/27 04:27:52;;;;;;;;;;;;;;;0.70;100.00;101591.47;5009601;28;20282;-80
2023/12/27 04:30:17;;;;;;;;;;;;;;;0.70;100.00;101587.94;4999284;28;19992;-80
2023/12/27 04:32:42;;;;;;;;;;;;;;;0.73;100.00;101593.84;4993040;28;19922;-79
2023/12/27 04:35:08;;;;;;;;;;;;;;;0.73;100.00;101579.78;4992340;28;20425;-79
2023/12/27 04:37:33;;;;;;;;;;;;;;;0.73;100.00;101577.97;4993501;28;20402;-79
2023/12/27 04:39:58;;;;;;;;;;;;;;;0.73;100.00;101575.31;4993070;28;19984;-80
2023/12/27 04:42:23;;;;;;;;;;;;;;;0.76;100.00;101571.59;4999466;28;19984;-79
2023/12/27 04:44:51;;;;;;;;;;;;;;;0.80;100.00;101558.97;5002347;28;19976;-80
2023/12/27 04:47:16;;;;;;;;;;;;;;;0.84;100.00;101553.31;5011202;28;19917;-80
2023/12/27 04:49:42;;;;;;;;;;;;;;;0.88;100.00;101549.47;5012006;28;19940;-80
2023/12/27 04:52:07;;;;;;;;;;;;;;;0.92;100.00;101550.06;5012199;28;19993;-80
2023/12/27 04:54:34;;;;;;;;;;;;;;;0.96;100.00;101540.09;5012006;28;19926;-79
2023/12/27 04:57:00;;;;;;;;;;;;;;;1.01;100.00;101549.38;5010761;28;20428;-79
2023/12/27 04:59:30;;;;;;;;;;;;;;;1.06;100.00;101535.78;5012220;28;19922;-80
2023/12/27 05:01:58;;;;;;;;;;;;;;;1.10;100.00;101534.56;5011902;28;20321;-79
2023/12/27 05:04:24;;;;;;;;;;;;;;;1.09;100.00;101537.34;5010356;28;19936;-79
2023/12/27 05:06:49;;;;;;;;;;;;;;;1.10;100.00;101526.63;5006135;28;19965;-79
2023/12/27 05:09:16;;;;;;;;;;;;;;;1.18;100.00;101518.91;5001431;28;19943;-79
2023/12/27 07:34:45;;;;;;;;;;;;;;;2.84;100.00;101375.28;4873495;23;20386;-76
2023/12/27 07:37:10;;;;;;;;;;;;;;;2.87;100.00;101383.00;5011893;28;19925;-76
2023/12/27 07:39:36;;;;;;;;;;;;;;;2.92;100.00;101377.28;5011916;28;20385;-76
2023/12/27 07:42:01;;;;;;;;;;;;;;;2.98;100.00;101378.59;5012242;28;19925;-78
2023/12/27 07:44:29;;;;;;;;;;;;;;;3.02;100.00;101370.22;5011424;28;19917;-79
2023/12/27 07:47:06;;;;;;;;;;;;;;;3.01;100.00;101365.88;5009931;28;20570;-78
2023/12/27 07:49:31;;;;;;;;;;;;;;;3.03;100.00;101360.41;5008601;28;19929;-79
2023/12/27 07:51:56;;;;;;;;;;;;;;;3.07;100.00;101369.78;5011171;28;19917;-78
2023/12/27 07:54:21;;;;;;;;;;;;;;;3.03;100.00;101360.41;5006683;28;19921;-79
2023/12/27 07:56:49;;;;;;;;;;;;;;;3.04;100.00;101367.41;4999780;28;19924;-79
2023/12/27 07:59:15;;;;;;;;;;;;;;;3.05;100.00;101360.28;5010629;28;19917;-79
2023/12/27 08:01:40;;;;;;;;;;;;;;;3.09;100.00;101351.06;5006342;28;19932;-79
2023/12/27 08:04:07;;;;;;;;;;;;;;;3.08;100.00;101350.19;5001624;28;19917;-79
2023/12/27 08:06:32;;;;;;;;;;;;;;;3.11;100.00;101355.25;5008511;28;19922;-78
2023/12/27 08:08:58;;;;;;;;;;;;;;;3.15;100.00;101356.69;5010224;28;20626;-79
2023/12/27 08:11:29;;;;;;;;;;;;;;;3.16;100.00;101347.72;5010499;28;20429;-80
2023/12/27 08:13:54;;;;;;;;;;;;;;;3.23;100.00;101360.47;5027565;28;19917;-79
2023/12/27 15:20:48;;;;;;;;;;;;;;;6.88;100.00;100713.66;4895889;29;20005;-77
2023/12/27 15:23:14;;;;;;;;;;;;;;;6.80;100.00;100698.44;4881380;29;20400;-77
2023/12/27 15:25:56;;;;;;;;;;;;;;;6.85;100.00;100701.44;4881451;29;19932;-76
2023/12/27 15:28:24;;;;;;;;;;;;;;;6.86;100.00;100699.63;4881209;29;19944;-78
2023/12/27 15:30:57;;;;;;;;;;;;;;;6.84;100.00;100686.41;4880485;29;19924;-77
2023/12/27 15:33:24;;;;;;;;;;;;;;;6.82;100.00;100681.22;4880521;29;21467;-77
2023/12/27 15:36:08;;;;;;;;;;;;;;;6.77;100.00;100672.91;4876572;29;19928;-79
2023/12/27 15:41:45;;;;;;;;;;;;;;;6.86;100.00;100648.78;4880062;29;19927;-77
2023/12/27 15:44:16;;;;;;;;;;;;;;;6.83;100.00;100657.97;4878817;29;19928;-77
2023/12/27 15:46:57;;;;;;;;;;;;;;;6.83;100.00;100652.63;4879516;29;19920;-77
2023/12/27 15:49:34;;;;;;;;;;;;;;;6.80;100.00;100659.16;4922463;23;19931;-77
2023/12/27 15:52:33;;;;;;;;;;;;;;;6.77;100.00;100651.50;4916243;29;19930;-78
2023/12/27 15:55:35;;;;;;;;;;;;;;;6.75;100.00;100648.16;4898129;29;19931;-77
2023/12/27 16:00:36;;;;;;;;;;;;;;;6.75;100.00;100626.75;4914429;29;20288;-78
2023/12/27 16:03:38;;;;;;;;;;;;;;;6.77;100.00;100619.38;4918244;29;19995;-77
2023/12/27 16:06:09;;;;;;;;;;;;;;;6.79;100.00;100621.91;4916273;29;19935;-77
2023/12/27 16:08:43;;;;;;;;;;;;;;;6.79;100.00;100613.88;4916705;29;19931;-77
2023/12/27 16:11:11;;;;;;;;;;;;;;;6.75;100.00;100605.34;4917388;29;20379;-77
2023/12/27 16:13:55;;;;;;;;;;;;;;;6.76;100.00;100599.00;4916167;29;19926;-77
2023/12/27 16:16:20;;;;;;;;;;;;;;;6.80;100.00;100596.78;4916022;29;20339;-76
2023/12/27 16:18:54;;;;;;;;;;;;;;;6.83;100.00;100591.94;4917196;29;19915;-76
2023/12/27 16:21:28;;;;;;;;;;;;;;;6.81;100.00;100591.28;4916479;29;20178;-76
2023/12/27 16:23:54;;;;;;;;;;;;;;;6.79;100.00;100590.63;4920125;23;19916;-76
2023/12/27 16:26:19;;;;;;;;;;;;;;;6.77;100.00;100584.59;4879336;29;20353;-76
2023/12/27 16:28:45;;;;;;;;;;;;;;;6.79;100.00;100563.84;4878727;29;20420;-76
2023/12/27 16:31:10;;;;;;;;;;;;;;;6.76;100.00;100566.88;4879213;29;19975;-77
2023/12/27 16:33:35;;;;;;;;;;;;;;;6.75;100.00;100565.22;4879336;29;19947;-76
2023/12/27 16:36:01;;;;;;;;;;;;;;;6.76;100.00;100542.81;4878563;29;20288;-77
2023/12/27 16:38:26;;;;;;;;;;;;;;;6.79;100.00;100537.09;4878780;29;20313;-77
2023/12/27 16:41:03;;;;;;;;;;;;;;;6.78;100.00;100535.44;4879133;29;19938;-77
2023/12/27 16:43:35;;;;;;;;;;;;;;;6.76;100.00;100539.31;4878796;29;20018;-77
2023/12/27 16:46:03;;;;;;;;;;;;;;;6.75;100.00;100530.44;4870831;29;19927;-77
2023/12/27 16:48:28;;;;;;;;;;;;;;;6.73;100.00;100505.72;4880837;29;19924;-76
2023/12/27 16:51:12;;;;;;;;;;;;;;;6.80;100.00;100506.66;4913576;23;20307;-76
2023/12/27 16:53:47;;;;;;;;;;;;;;;6.74;100.00;100506.56;4915649;29;19945;-77
2023/12/27 16:56:12;;;;;;;;;;;;;;;6.79;100.00;100507.69;4917079;29;20016;-77
2023/12/27 16:58:47;;;;;;;;;;;;;;;6.77;100.00;100492.81;4916839;29;20024;-76
2023/12/27 17:01:21;;;;;;;;;;;;;;;6.88;100.00;100496.91;4916095;29;19931;-76
2023/12/27 17:04:08;;;;;;;;;;;;;;;6.89;100.00;100474.47;4916689;29;19934;-76
2023/12/27 17:07:05;;;;;;;;;;;;;;;6.81;100.00;100476.22;4916546;29;19931;-75
2023/12/27 17:15:38;;;;;;;;;;;;;;;6.76;100.00;100443.00;4918016;29;19934;-75
2023/12/27 17:24:13;;;;;;;;;;;;;;;6.84;100.00;100421.50;5498038;23;19928;-75
2023/12/27 17:30:11;;;;;;;;;;;;;;;6.78;100.00;100407.03;4878731;29;20313;-75
2023/12/27 17:32:51;;;;;;;;;;;;;;;6.73;100.00;100401.38;4885329;29;19923;-74
2023/12/27 17:45:17;;;;;;;;;;;;;;;;;;;;;
2023/12/27 18:05:54;;;;;;;;;;;;;;;6.81;100.00;100341.59;4946662;29;19938;-74
2023/12/27 18:08:35;;;;;;;;;;;;;;;6.88;100.00;100331.84;4942951;29;19926;-74
2023/12/27 18:14:10;;;;;;;;;;;;;;;6.85;99.05;100331.38;4878582;29;19958;-75
2023/12/27 18:16:46;;;;;;;;;;;;;;;6.87;98.14;100327.50;4869105;29;19963;-75
2023/12/27 18:19:14;;;;;;;;;;;;;;;6.90;97.50;100315.59;4830465;29;19935;-74
2023/12/27 18:21:49;;;;;;;;;;;;;;;6.92;95.80;100300.19;4880325;29;19924;-75
2023/12/27 18:24:34;;;;;;;;;;;;;;;6.90;96.70;100297.69;4881778;29;19995;-74
2023/12/27 18:27:10;;;;;;;;;;;;;;;6.90;96.21;100318.25;4892081;29;19928;-75
2023/12/27 18:29:50;;;;;;;;;;;;;;;6.87;95.90;100314.13;5101694;23;19953;-76
2023/12/27 18:32:37;;;;;;;;;;;;;;;6.82;95.80;100320.03;5039433;23;19932;-76
2023/12/27 18:35:24;;;;;;;;;;;;;;;6.89;95.46;100338.00;4918733;29;19930;-76
2023/12/27 18:40:52;;;;;;;;;;;;;;;6.88;92.71;100312.28;4919177;29;19929;-75
2023/12/27 18:43:42;;;;;;;;;;;;;;;6.98;91.84;100361.81;4880087;29;19931;-75
2023/12/27 18:46:29;;;;;;;;;;;;;;;7.03;91.30;100376.47;4918273;29;19923;-75
2023/12/27 18:49:10;;;;;;;;;;;;;;;7.00;90.34;100387.56;4919178;29;19955;-75
2023/12/27 18:51:45;;;;;;;;;;;;;;;6.95;90.87;100396.16;4921494;29;19935;-75
2023/12/27 18:54:10;;;;;;;;;;;;;;;6.95;90.64;100398.81;4917147;29;19923;-75
2023/12/27 18:56:35;;;;;;;;;;;;;;;6.90;90.85;100383.31;4931022;29;19983;-77
2023/12/27 18:59:02;;;;;;;;;;;;;;;6.90;88.63;100383.31;4918648;29;19995;-75
2023/12/27 19:01:28;;;;;;;;;;;;;;;6.97;87.67;100367.34;4918632;29;20394;-76
2023/12/27 19:03:55;;;;;;;;;;;;;;;6.98;86.47;100358.31;4903834;29;19919;-75
2023/12/27 19:06:24;;;;;;;;;;;;;;;6.96;86.72;100365.69;4912839;29;19943;-75
2023/12/27 19:08:49;;;;;;;;;;;;;;;6.94;86.82;100335.59;4919677;29;19935;-75
2023/12/27 19:32:21;;;;;;;;;;;;;;;6.87;85.52;100321.34;5427202;23;19935;-75
2023/12/27 20:47:05;;;;;;;;;;;;;;;7.00;79.62;100329.53;4806353;29;20015;-75
2023/12/27 20:56:17;;;;;;;;;;;;;;;7.05;79.24;100353.03;4807465;29;19969;-75
2023/12/27 20:59:38;;;;;;;;;;;;;;;7.06;78.63;100376.94;4805885;29;20028;-76
2023/12/27 21:05:14;;;;;;;;;;;;;;;6.92;83.94;100391.16;4798668;29;19932;-76
2023/12/27 21:07:40;;;;;;;;;;;;;;;6.75;84.38;100377.97;4805985;29;19978;-77
2023/12/27 21:10:14;;;;;;;;;;;;;;;6.66;85.65;100387.91;4806703;29;19929;-77
2023/12/27 21:16:23;;;;;;;;;;;;;;;;;;;;;
2023/12/27 21:28:08;;;;;;;;;;;;;;;6.31;90.73;100378.72;4884365;29;19988;-77
2023/12/27 21:51:47;;;;;;;;;;;;;;;5.97;96.66;100380.78;5065608;23;19937;-78
2023/12/27 21:54:13;;;;;;;;;;;;;;;5.97;96.26;100369.28;4938906;29;19926;-78
2023/12/27 21:56:38;;;;;;;;;;;;;;;6.00;96.16;100369.78;4936881;29;19982;-77
2023/12/27 21:59:03;;;;;;;;;;;;;;;6.03;95.37;100372.09;4942597;29;19924;-77
2023/12/27 22:01:42;;;;;;;;;;;;;;;6.09;95.02;100364.38;4956566;28;20015;-76
2023/12/27 22:04:16;;;;;;;;;;;;;;;6.10;94.91;100369.53;4943455;29;19930;-77
2023/12/27 22:12:25;;;;;;;;;;;;;;;6.24;94.06;100362.59;4900183;29;19998;-77
2023/12/27 22:14:51;;;;;;;;;;;;;;;6.26;94.63;100368.59;4825441;23;3048624;-78
2023/12/27 22:17:16;;;;;;;;;;;;;;;6.33;92.03;100355.31;4940763;29;19922;-77
2023/12/27 22:19:42;;;;;;;;;;;;;;;6.31;93.63;100376.88;4941165;29;20029;-76
2023/12/27 22:22:07;;;;;;;;;;;;;;;6.34;93.17;100383.72;4940461;29;19926;-77
2023/12/27 22:24:32;;;;;;;;;;;;;;;6.35;95.69;100380.03;4941815;29;19929;-77
2023/12/27 22:26:59;;;;;;;;;;;;;;;6.38;95.75;100382.31;4960225;28;19914;-77
2023/12/27 22:29:24;;;;;;;;;;;;;;;6.47;92.96;100386.59;4954584;29;19923;-76
2023/12/27 22:31:51;;;;;;;;;;;;;;;6.48;95.20;100390.94;4947225;29;19942;-77
2023/12/27 22:34:18;;;;;;;;;;;;;;;6.49;94.60;100384.59;4942163;29;19950;-77
2023/12/27 22:36:44;;;;;;;;;;;;;;;6.49;95.06;100387.25;4941303;29;19958;-77
2023/12/27 22:39:09;;;;;;;;;;;;;;;6.52;94.79;100386.91;4939124;29;19919;-77
2023/12/27 22:41:35;;;;;;;;;;;;;;;6.58;94.49;100389.84;4937150;29;19939;-78
2023/12/27 22:44:00;;;;;;;;;;;;;;;6.66;93.18;100387.91;4937332;29;19923;-78
2023/12/27 22:46:27;;;;;;;;;;;;;;;6.66;93.69;100403.13;4937020;29;20005;-77
2023/12/27 22:48:53;;;;;;;;;;;;;;;6.72;93.28;100397.03;4938079;29;19923;-77
2023/12/27 22:51:24;;;;;;;;;;;;;;;6.75;94.17;100401.22;4947002;29;19930;-78
2023/12/27 22:53:50;;;;;;;;;;;;;;;6.80;92.66;100398.81;4956591;29;20016;-78
2023/12/27 22:56:15;;;;;;;;;;;;;;;6.89;91.67;100402.22;4943757;29;19930;-77
2023/12/27 22:58:40;;;;;;;;;;;;;;;6.91;92.16;100401.03;4938040;29;19915;-77
2023/12/27 23:01:05;;;;;;;;;;;;;;;7.00;90.48;100408.97;4939075;29;20398;-78
2023/12/27 23:03:31;;;;;;;;;;;;;;;7.03;90.91;100398.75;4936932;29;19978;-78
2023/12/27 23:05:56;;;;;;;;;;;;;;;7.10;90.39;100398.81;4936104;29;19919;-78
2023/12/27 23:08:25;;;;;;;;;;;;;;;7.06;90.34;100398.34;4937038;29;20284;-77
2023/12/27 23:10:50;;;;;;;;;;;;;;;7.17;90.95;100421.16;4935893;29;19958;-78
2023/12/27 23:13:15;;;;;;;;;;;;;;;7.16;91.53;100418.66;4934827;29;19974;-78
2023/12/27 23:15:41;;;;;;;;;;;;;;;7.24;90.79;100386.44;4936286;29;19978;-78
2023/12/27 23:18:08;;;;;;;;;;;;;;;7.35;89.09;100412.75;4936539;29;20355;-77
2023/12/27 23:20:33;;;;;;;;;;;;;;;7.43;89.37;100409.13;4935762;29;19927;-77
2023/12/27 23:22:59;;;;;;;;;;;;;;;7.53;88.25;100408.84;4939271;29;19923;-77
2023/12/27 23:25:25;;;;;;;;;;;;;;;7.50;89.58;100419.94;4936966;29;20390;-77
2023/12/27 23:27:50;;;;;;;;;;;;;;;7.53;88.78;100419.56;4935599;29;19950;-78
2023/12/27 23:30:17;;;;;;;;;;;;;;;7.62;89.08;100422.97;4937426;29;19929;-78
2023/12/27 23:32:43;;;;;;;;;;;;;;;7.59;89.55;100434.84;4936600;29;20338;-78
2023/12/27 23:35:08;;;;;;;;;;;;;;;7.65;89.38;100428.75;4937744;29;19926;-78
2023/12/27 23:37:33;;;;;;;;;;;;;;;7.68;89.49;100433.75;4938551;29;19973;-78
2023/12/27 23:40:03;;;;;;;;;;;;;;;7.77;89.44;100422.91;4919259;29;19954;-78
2023/12/27 23:48:50;;;;;;;;;;;;;;;;;;;;;
2023/12/27 23:56:56;;;;;;;;;;;;;;;8.01;88.10;100416.38;5530438;23;19977;-77
2023/12/27 23:59:30;;;;;;;;;;;;;;;8.01;87.54;100422.56;4877719;29;19977;-77
